cs, 2018 augusztus 16. @ 15:48 (Europe/Budapest) | Időzóna választás

Keresés

Keresés

Találd meg a csapatokat és bajnokságokat gyorsan

Hasonlitás

Hasonlitás

Klikkelj erre h2h az ikonra bárhol a csapatok összehasonlitásához és a statisztikák megtekintéséhez

Mérkőzések

Mérkőzések

Nézd meg a mai mérkőzések, a holnapi mérkőzések, a tegnapi eredmények listáját vagy bármely dátum mérkőzéseit a naptár segitségével


Legnépszerűbb bajnokságok


Szeretsz fogadni? Látogasd meg a Sportfogadás weboldalunkat!

Mérkőzések - 2018.02.25

Csoportosítás: bajnokság szerint | idő szerint
Idő Hazai Eredmény Vendég 1 X 2 H2H
 Futball Ausztrália A-League 2017/2018
08:30 Sydney FC 3 : 1 Western Sydney 1.43 4.48 6.35
 Jégkorong Ausztria Eishockey Liga 2017/2018
17:30 CE Wien 5 : 6 Linz 1.72 4.77 3.40
17:30 Innsbruck 4 : 2 Klagenfurt 2.27 4.38 2.40
17:30 Salzburg 4 : 5 ot Medveščak Zagreb KHL 1.42 5.88 4.73
17:30 Villach 2 : 4 Székesfehérvár 1.97 4.48 2.83
17:30 Dornbirn 4 : 1 Bolzano 2.00 4.40 2.82
18:00 Graz 4 : 3 ot Znojmo 2.33 4.53 2.28
 Futball Chile Primera Division 2018
00:30 Universidad Católica 1 : 0 Union La Calera 1.66 3.58 4.39
16:00 Antofagasta 2 : 1 Municipal Iquique 2.13 3.13 3.22
22:00 Deportes Temuco 0 : 1 Universidad de Chile 2.64 3.14 2.49
 Kézilabda CL Champions League M 2017/2018
17:00 Flensburg-Handewitt 31 : 31 Veszprém 1.96 8.75 2.19
17:00 Nantes HBC 27 : 26 Vardar Vatrost. Skopje 2.32 9.25 1.85
19:00 Wisla Plock SSA 27 : 32 Rhein-Neckar-Löwen 2.71 9.38 1.66
 Kézilabda CL Champions League W 2017/2018
15:00 Metz 24 : 22 Vardar 2.59 8.75 1.70
15:00 Midtjylland 24 : 24 Ljubljana Krim 1.17 13.50 6.25
17:00 Bietigheim SG BBM 21 : 34 Thüringer HC 2.26 8.63 2.02
 Kézilabda Csehország Extraleague M 2017/2018
17:00 Frýdek- Místek 23 : 22 Plzeň 1.46 9.17 3.41
 Jégkorong Dánia SuperBest-ligaen 2017/2018
14:00 Rodovre Kobenhavn 3 : 1 Herning 3.02 4.35 1.90
14:00 Rungsted 4 : 2 Herlev 1.38 5.83 5.17
15:00 Fredrikshavn 2 : 3 Sonderjylland IK 1.77 4.50 3.32
16:00 Odense 2 : 1 Totempo Hvidovre HVIK 1.28 6.25 6.58
17:30 Aalborg 1 : 3 Esbjerg 2.25 4.10 2.50
 Futball Ecuador Primera A 2018
18:00 Técnico Universitario 0 : 1 Barcelona 2.91 3.10 2.28
23:00 Delfin Manta 1 : 3 El Nacional Quito 1.72 3.36 4.39
 Futball Görögország B Ethniki 2017/2018
14:00 Panegialios Aigio 1 : 0 Sparti 5.00 3.17 1.67
14:00 Apollon Larissas 3 : 0 Aharnaikos - - -
14:00 OFI Crete 2 : 0 Panserraikos 1.13 6.81 14.00
14:00 Aiginiakos 1 : 4 Aris Saloniki 10.13 5.88 1.18
14:00 Anegenisi Karditsas 0 : 1 Doxa Drama 2.67 2.99 2.46
14:00 Kalamaria 3 : 0 Veria PAE - - -
 Kosárlabda Horvátország A1 M 2017/2018
18:00 Cibona Zagreb 109 : 49 Kastela - - -
 Futball Japán J League 2018
05:00 Vegalta Sendai 1 : 0 Reysol 3.58 3.16 2.00
05:00 Shimizu 0 : 0 Kashima 4.92 3.40 1.66
07:30 Jubilo 0 : 3 Kawasaki F. 3.52 3.14 2.02
08:00 Cerezo 1 : 1 Marinos 1.73 3.30 4.63
 Jégkorong Jégkorong NHL 2017/2018
00:15 New Jersey 2 : 1 NY Islanders 2.14 4.03 2.83
01:00 Montreal 3 : 4 ot(p) Tampa Bay 3.23 4.03 1.98
01:00 Columbus 3 : 2 Chicago 1.93 3.98 3.30
01:00 Florida 6 : 5 Pittsburgh 2.60 3.93 2.33
01:00 Washington 5 : 1 Buffalo 1.81 4.13 3.68
01:00 Detroit 3 : 1 Carolina 2.35 3.88 2.58
01:00 Toronto 4 : 3 Boston 2.60 3.85 2.34
01:00 Dallas 3 : 5 Atlanta 2.17 3.98 2.80
02:00 Phoenix 2 : 0 Anaheim 3.22 3.93 1.99
04:00 Los Angeles 3 : 4 Edmonton 2.08 3.92 3.02
18:00 Nashville 4 : 0 St. Louis 2.02 3.90 3.17
23:00 Buffalo 4 : 1 Boston 3.90 4.07 1.77
 Futball Kolumbia Primera División 2018
01:45 Deportive Cali 2 : 0 Millonarios 2.16 2.99 3.30
20:00 La Equidad 1 : 0 Envigado FC 2.01 2.86 3.92
22:00 Once Caldas 1 : 0 Atlético Huila 1.78 3.05 4.72
23:15 Independiente Santa Fe 4 : 0 Jaguares de Cordoba 1.39 3.84 8.05
 Kosárlabda Kosárlabda NBA 2017/2018
01:30 New York 112 : 121 Boston 2.65 10.50 1.52
01:30 Miami 115 : 89 Memphis 1.27 11.50 3.90
02:30 Golden State 112 : 80 Oklahoma City 1.22 12.00 4.50
03:00 Phoenix 104 : 106 Portland 3.20 12.00 1.35
03:00 Minnesota 122 : 104 Chicago 1.35 12.00 3.20
03:00 Utah 97 : 90 Dallas 1.25 11.50 4.10
04:00 Sacramento 108 : 113 L.A.Lakers 2.05 10.50 1.82
19:00 Charlotte Bobcats 114 : 98 Detroit 1.55 11.00 2.55
21:00 Milwaukee 121 : 123 ot New Orleans 1.55 10.50 2.55
21:30 Cleveland 94 : 110 San Antonio 1.55 10.50 2.55
 Kosárlabda Lengyelország Ekstraklasa W 2017/2018
17:00 Bydgoszcz Baton 86 : 55 Lublin AZS 1.18 - 3.95
17:00 Siedlce MKK 65 : 102 Polkowice 8.50 - 1.02
19:00 Sleza Wroclaw 87 : 83 Gdynia GTK 1.25 - 3.35
 Jégkorong Lengyelország Ekstraliga 2017/2018
17:00 Katowice 5 : 0 Orlik Opole 1.26 6.50 6.67
17:00 Tychy 4 : 0 Bytom 1.08 10.83 13.67
18:30 Kraków 5 : 2 Unia Osvětim 1.25 6.75 6.67
18:45 Podhale Nowy Targ 2 : 0 Jastrzebie JKH GKS 1.71 4.36 3.48
 Futball Litvánia A Lyga 2018
12:00 Palanga 1 : 1 Lietava Jonava - - -
17:00 Žalgiris Vilnius 2 : 0 Spyris Kaunas - - -
 Jégkorong Németország 2. Bundesliga 2017/2018
17:00 Lausitzer Füchse 3 : 1 Bayreuth ESV 1.60 4.98 3.77
17:00 Kaufbeuren 4 : 0 Ravensburg 1.95 4.70 2.72
17:00 Bietigheim 4 : 5 Dresden 1.68 4.83 3.47
18:00 Tölzer Löwen 3 : 2 Kassel 3.30 4.92 1.71
18:30 Heilbronn 2 : 7 Riessersee 2.56 4.47 2.08
18:30 Freiburg 0 : 3 Crimmitschau 2.07 4.50 2.59
18:30 Frankfurt 2 : 3 Bad Nauheim 1.54 5.32 3.93
 Jégkorong Norvégia Eliteserien 2017/2018
17:00 Valerenga Oslo 6 : 2 Kongsvinger 1.11 9.69 13.00
17:00 Storhamar 7 : 2 Manglerud 1.24 6.75 8.06
 Kézilabda Norvégia Eliteserien M 2017/2018
18:00 Sandnes 23 : 29 Elverum 12.00 18.50 1.04
18:00 Baekkelaget Oslo 33 : 30 Falk 1.40 9.63 3.55
18:00 Notteroy 29 : 25 Arendal IF 9.13 16.00 1.08
18:00 Fyllingen 32 : 28 Halden TTIF 2.40 8.63 1.76
18:00 Drammen HK 29 : 24 Kolstad Trondheim 1.22 11.75 5.10
 Kosárlabda Oroszország 1st League W 2017/2018
13:00 Ekaterinburg UMMC 90 : 53 Moskovskaya obl. Dynamo - - -
13:00 Orenburg Nadezhda 75 : 45 Kazan University 1.01 - 9.00
14:00 Inventa Kursk 84 : 57 Spartak Noginsk 1.08 - 5.75
16:00 Moskva Dynamo 88 : 82 Spartak Moskva 1.55 - 2.20
 Kosárlabda Spanyolország 1st League W 2017/2018
12:00 Salamanca Halcon 79 : 56 Caja Rural Tintos De Toro - - -
12:00 Extremadura Badajoz 71 : 61 Estudiantes 1.13 - 4.70
12:15 Del Pais Vasco 64 : 79 Ferrol 1.82 - 1.82
18:00 Bizkaia Ibaizabal 53 : 59 Lacturale Araski 1.30 - 3.00
18:00 Campus Promete Logrono 58 : 71 Girona 7.25 - 1.04
18:15 La Seu D'Urgell 62 : 66 Bembibre PDM 1.38 - 2.65
 Jégkorong Svájc Nationalliga B 2017/2018
17:30 Olten 2 : 4 Thurgau 1.75 4.70 3.15
17:30 Rapperswill 7 : 0 Academy Zug EVZ 1.11 9.58 10.83
17:30 Langenthal 2 : 5 Visp 1.60 4.93 3.68
18:00 Chaux de Fonds 1 : 5 Ajoie 2.05 4.70 2.52
 Kézilabda Svédország Elitserien M 2017/2018
15:00 Aranäs HK 35 : 28 Helsingborg OV 1.55 8.88 2.98
 Jégkorong Szlovákia Extraliga 2017/2018
16:00 Nitra 4 : 1 Trenčín 1.91 4.35 3.00
17:00 Banská Bystrica 6 : 2 Nov 1.26 6.67 7.17
17:00 Žilina 3 : 6 Košice 3.00 4.38 1.90
17:00 Poprad 3 : 5 Zvolen 2.30 4.31 2.36
18:00 Liptovský Mikuláš 1 : 2 ot Detva 07 HC 1.56 4.85 4.24
 Futball Uruguay Primera Division 2018
21:00 Danubio 1 : 0 River Plate (URU) 2.07 3.19 3.30
21:00 Torque 2 : 2 Racing Montevideo 2.73 3.22 2.36
21:00 Atenas Atlético 2 : 1 Montevideo Wanderers 2.84 3.10 2.35
21:00 Fénix 2 : 0 Progreso 2.19 3.16 3.08
23:30 Nacional 4 : 0 Cerro 1.43 4.04 6.65
 Futball Venezuela Primera Division 2018
21:00 Trujillanos FC 3 : 1 Deportivo Anzoátegui SC 1.64 3.21 5.25
22:00 Estudiantes FC 1 : 1 Mineros de Guayana 3.36 3.25 1.98

Sportstatisztikák

  • futball, kosárlabda, kézilabda és jégkorong statisztika több, mint 90 bajnokságból (eredmények, tabellák, következő mérközések, egyéb hasznos statisztikák, fogadóirodák oddsai)
  • egyéb hasznos dolgok: tippek; csapatok, illetve bajnokságok összehasonlitása; sorozatok (pl. egy csapat hány meccset nyert meg sorozatban); kiválasztások ( pl. melyik csapat nem nyert még mérközést); friss eredmények, fórum, sportfogadás.
  • az eredmények rendszeresen frissülnek, naponta többször

A funkciók részletes leirásait megtalálod a Súgóban.